M/V Eren C — 3EDF4 — position and weather

sailwx.info

Track history (hours):
 
Tides and Currents Weather Stations Pressure Air Temp Water Temp Dewpoint Dewpoint Depression Visibility Wind Speed Wind Dir Waves Ship Positions

M/V Eren C

Last reported at 2018-Feb-03 00:58 UTC. Time now 2018-Feb-20 13:17 UTC.
Position N 37°04' E 025°00'.
Warning: this ship's position is 17 days out of date.

; draft 7.9 m.

Type: Ship. MMSI: 371564000.

Date/timePositionNaut miles runAvg speedWind from/ knotsBaromVisibWave heightAir tempDewpointWater temp
2018-Feb-03 00:58N 37°04' E 025°00'4 9.3
2018-Feb-03 00:30N 37°07' E 025°04'6 9.3
2018-Feb-02 23:54N 37°10' E 025°10'4 9.2
2018-Feb-02 23:30N 37°12' E 025°14'5 9.6
2018-Feb-02 23:00N 37°14' E 025°19'5 9.6
2018-Feb-02 22:31N 37°17' E 025°24'5 9.6
2018-Feb-02 22:00N 37°19' E 025°29'5 9.4
2018-Feb-02 21:30N 37°21' E 025°34'4 9.0
2018-Feb-02 21:00N 37°25' E 025°37'5 8.8
2018-Feb-02 20:30N 37°29' E 025°40'4 8.5
2018-Feb-02 20:00N 37°33' E 025°43'10 8.4
2018-Feb-02 18:50N 37°41' E 025°49'  
2018-Jan-29 10:36N 46°09' E 031°02'1 9.6
2018-Jan-29 10:30N 46°10' E 031°01'5 9.5
2018-Jan-29 10:00N 46°13' E 030°56'6 8.9
2018-Jan-29 09:17N 46°19' E 030°53'3 9.0
2018-Jan-29 09:00N 46°22' E 030°52'5 9.1
2018-Jan-29 08:31N 46°26' E 030°50'4 8.8
2018-Jan-29 08:00N 46°30' E 030°47'1 2.0
2018-Jan-29 07:30N 46°29' E 030°45'0 0.0
2018-Jan-29 07:00N 46°29' E 030°45'0 0.0
2018-Jan-29 06:30N 46°29' E 030°45'0 0.0
2018-Jan-29 06:00N 46°29' E 030°45'0 0.0
2018-Jan-29 05:27N 46°29' E 030°45'0 0.0
2018-Jan-29 05:00N 46°29' E 030°45'0 0.0
2018-Jan-29 04:30N 46°29' E 030°45'0 0.0
2018-Jan-29 04:00N 46°29' E 030°45'0 0.0
2018-Jan-29 03:27N 46°29' E 030°45'0 0.0
2018-Jan-29 03:00N 46°29' E 030°45'0 0.0
2018-Jan-29 02:30N 46°29' E 030°45'0 0.0
2018-Jan-29 02:00N 46°29' E 030°45'0 0.0
2018-Jan-29 01:30N 46°29' E 030°45'0 0.0
2018-Jan-29 01:00N 46°29' E 030°45'0 0.0
2018-Jan-29 00:30N 46°29' E 030°45'0 0.0
2018-Jan-29 00:00N 46°29' E 030°45'0 0.0
2018-Jan-28 23:30N 46°29' E 030°45'0 0.0
2018-Jan-28 23:00N 46°29' E 030°45'0 0.0
2018-Jan-28 22:30N 46°29' E 030°45'0 0.0
2018-Jan-28 22:00N 46°29' E 030°45'0 0.0
2018-Jan-28 21:30N 46°29' E 030°45'0 0.0
2018-Jan-28 21:00N 46°29' E 030°45'0 0.0
2018-Jan-28 20:30N 46°29' E 030°45'0 0.0
2018-Jan-28 20:00N 46°29' E 030°45'0 0.0
2018-Jan-28 19:30N 46°29' E 030°45'0 0.0
2018-Jan-28 19:00N 46°29' E 030°45'0 0.0
2018-Jan-28 18:30N 46°29' E 030°45'0 0.0
2018-Jan-28 18:00N 46°29' E 030°45'0 0.0
2018-Jan-28 17:30N 46°29' E 030°45'0 0.0
2018-Jan-28 17:00N 46°29' E 030°45'0 0.0
2018-Jan-28 16:30N 46°29' E 030°45'0 0.0
2018-Jan-28 15:57N 46°29' E 030°45'0 0.0
2018-Jan-28 15:30N 46°29' E 030°45'0 0.0
2018-Jan-28 15:00N 46°29' E 030°45'0 0.0
2018-Jan-28 14:30N 46°29' E 030°45'0 0.0
2018-Jan-28 14:00N 46°29' E 030°45'0 0.0
2018-Jan-28 13:30N 46°29' E 030°45'0 0.0
2018-Jan-28 13:00N 46°29' E 030°45'0 0.0
2018-Jan-28 12:30N 46°29' E 030°45'0 0.0
2018-Jan-28 12:00N 46°29' E 030°45'0 0.0
2018-Jan-28 11:30N 46°29' E 030°45'0 0.0
2018-Jan-28 10:57N 46°29' E 030°45'0 0.0
2018-Jan-28 10:30N 46°29' E 030°45'0 0.0
2018-Jan-28 10:00N 46°29' E 030°45'0 0.0
2018-Jan-28 09:30N 46°29' E 030°45'0 0.0
2018-Jan-28 09:00N 46°29' E 030°45'0 0.0
2018-Jan-28 08:28N 46°29' E 030°45'0 0.0
2018-Jan-28 07:58N 46°29' E 030°45'0 0.0
2018-Jan-28 07:28N 46°29' E 030°45'0 0.0
2018-Jan-28 06:58N 46°29' E 030°45'0 0.0
2018-Jan-28 06:28N 46°29' E 030°45'0 0.0
2018-Jan-28 05:58N 46°29' E 030°45'0 0.0
2018-Jan-28 05:28N 46°29' E 030°45'0 0.0
2018-Jan-28 04:58N 46°29' E 030°45'0 0.0
2018-Jan-28 04:28N 46°29' E 030°45'0 0.0
2018-Jan-28 03:58N 46°29' E 030°45'0 0.0
2018-Jan-28 03:28N 46°29' E 030°45'0 0.0
2018-Jan-28 02:58N 46°29' E 030°45'0 0.0
2018-Jan-28 02:28N 46°29' E 030°45'0 0.0
2018-Jan-28 01:58N 46°29' E 030°45'0 0.0
2018-Jan-28 01:28N 46°29' E 030°45'0 0.0
2018-Jan-28 00:58N 46°29' E 030°45'0 0.0
2018-Jan-28 00:28N 46°29' E 030°45'0 0.0
2018-Jan-27 23:58N 46°29' E 030°45'0 0.0
2018-Jan-27 23:28N 46°29' E 030°45'0 0.0
2018-Jan-27 22:58N 46°29' E 030°45'0 0.0
2018-Jan-27 22:28N 46°29' E 030°45'0 0.0
2018-Jan-27 21:58N 46°29' E 030°45'0 0.0
2018-Jan-27 21:25N 46°29' E 030°45'0 0.0
2018-Jan-27 20:58N 46°29' E 030°45'0 0.0
2018-Jan-27 20:28N 46°29' E 030°45'0 0.0
2018-Jan-27 19:58N 46°29' E 030°45'0 0.0
2018-Jan-27 19:25N 46°29' E 030°45'0 0.0
2018-Jan-27 18:58N 46°29' E 030°45'0 0.0
2018-Jan-27 18:28N 46°29' E 030°45'0 0.0
2018-Jan-27 17:55N 46°29' E 030°45'0 0.0
2018-Jan-27 17:28N 46°29' E 030°45'0 0.0
2018-Jan-27 16:55N 46°29' E 030°45'0 0.0
2018-Jan-27 16:28N 46°29' E 030°45'0 0.0
2018-Jan-27 15:58N 46°29' E 030°45'0 0.0
2018-Jan-27 15:29N 46°29' E 030°45'0 0.0
2018-Jan-27 14:59N 46°29' E 030°45'0 0.0
2018-Jan-27 14:29N 46°29' E 030°45'0 0.0
2018-Jan-27 13:56N 46°29' E 030°45'0 0.0
2018-Jan-27 13:26N 46°29' E 030°45'0 0.0
2018-Jan-27 12:59N 46°29' E 030°45'0 0.0
2018-Jan-27 12:29N 46°29' E 030°45'0 0.0
2018-Jan-27 11:59N 46°29' E 030°45'0 0.0
2018-Jan-27 11:29N 46°29' E 030°45'0 0.0
2018-Jan-27 10:59N 46°29' E 030°45'0 0.0
2018-Jan-27 10:29N 46°29' E 030°45'0 0.0
2018-Jan-27 09:59N 46°29' E 030°45'0 0.0
2018-Jan-27 09:26N 46°29' E 030°45'0 0.0
2018-Jan-27 08:59N 46°29' E 030°45'0 0.0
2018-Jan-27 08:29N 46°29' E 030°45'0 0.0
2018-Jan-27 07:59N 46°29' E 030°45'0 0.0
2018-Jan-27 07:29N 46°29' E 030°45'0 0.0
2018-Jan-27 06:59N 46°29' E 030°45'0 0.0
2018-Jan-27 06:29N 46°29' E 030°45'0 0.0
2018-Jan-27 05:59N 46°29' E 030°45'0 0.0
2018-Jan-27 05:29N 46°29' E 030°45'0 0.0
2018-Jan-27 04:59N 46°29' E 030°45'0 0.0
2018-Jan-27 04:29N 46°29' E 030°45'0 0.0
2018-Jan-27 03:59N 46°29' E 030°45'0 0.0
2018-Jan-27 03:29N 46°29' E 030°45'0 0.0
2018-Jan-27 02:59N 46°29' E 030°45'0 0.0
2018-Jan-27 02:29N 46°29' E 030°45'0 0.0
2018-Jan-27 01:59N 46°29' E 030°45'0 0.0
2018-Jan-27 01:29N 46°29' E 030°45'0 0.0
2018-Jan-27 00:56N 46°29' E 030°45'0 0.0
2018-Jan-27 00:29N 46°29' E 030°45'0 0.0
2018-Jan-26 23:56N 46°29' E 030°45'0 0.0
2018-Jan-26 23:29N 46°29' E 030°45'0 0.0
2018-Jan-26 22:59N 46°29' E 030°45'0 0.0
2018-Jan-26 22:29N 46°29' E 030°45'0 0.0
2018-Jan-26 21:59N 46°29' E 030°45'0 0.0
2018-Jan-26 21:29N 46°29' E 030°45'0 0.0
2018-Jan-26 20:59N 46°29' E 030°45'0 0.0
2018-Jan-26 20:29N 46°29' E 030°45'0 0.0
2018-Jan-26 19:59N 46°29' E 030°45'0 0.0
2018-Jan-26 19:29N 46°29' E 030°45'0 0.0
2018-Jan-26 18:56N 46°29' E 030°45'0 0.0
2018-Jan-26 18:29N 46°29' E 030°45'0 0.0
2018-Jan-26 17:59N 46°29' E 030°45'0 0.0
2018-Jan-26 17:26N 46°29' E 030°45'0 0.0
2018-Jan-26 16:59N 46°29' E 030°45'0 0.0
2018-Jan-26 16:29N 46°29' E 030°45'0 0.0
2018-Jan-26 15:59N 46°29' E 030°45'0 0.0
2018-Jan-26 15:29N 46°29' E 030°45'0 0.0
2018-Jan-26 14:59N 46°29' E 030°45'0 0.0
2018-Jan-26 14:29N 46°29' E 030°45'0 0.0
2018-Jan-26 13:59N 46°29' E 030°45'0 0.0
2018-Jan-26 13:29N 46°29' E 030°45'0 0.0
2018-Jan-26 13:00N 46°29' E 030°45'1 1.6
2018-Jan-26 12:30N 46°30' E 030°46'1 2.6
2018-Jan-26 12:00N 46°30' E 030°47'2 3.4
2018-Jan-26 11:30N 46°29' E 030°49'2 2.8
2018-Jan-26 10:56N 46°28' E 030°51'0 0.1
2018-Jan-26 10:29N 46°28' E 030°51'0 0.0
2018-Jan-26 08:50N 46°28' E 030°51'0 0.0
2018-Jan-26 06:59N 46°28' E 030°51'0 0.0
2018-Jan-26 05:38N 46°28' E 030°51'0 0.0
2018-Jan-26 05:23N 46°28' E 030°51'0 0.0
2018-Jan-26 04:35N 46°28' E 030°51'0 0.1
2018-Jan-26 04:29N 46°28' E 030°51'0 0.0
2018-Jan-26 03:59N 46°28' E 030°51'0 0.0
2018-Jan-26 03:29N 46°28' E 030°51'0 0.0
2018-Jan-26 02:56N 46°28' E 030°51'0 0.0
2018-Jan-26 02:29N 46°28' E 030°51'0 0.0
2018-Jan-26 01:59N 46°28' E 030°51'0 0.0
2018-Jan-26 01:14N 46°28' E 030°51'0 0.0
2018-Jan-26 00:59N 46°28' E 030°51'0 0.0
2018-Jan-26 00:17N 46°28' E 030°51'0 0.0
2018-Jan-25 23:56N 46°28' E 030°51'0 0.0
2018-Jan-25 23:20N 46°28' E 030°51'0 0.0
2018-Jan-25 22:35N 46°28' E 030°51'0 0.0
2018-Jan-25 22:23N 46°28' E 030°51'0 0.0
2018-Jan-25 21:53N 46°28' E 030°51'0 0.0
2018-Jan-25 21:26N 46°28' E 030°51'0 0.0
2018-Jan-25 20:56N 46°28' E 030°51'0 0.0
2018-Jan-25 20:29N 46°28' E 030°51'0 0.0
2018-Jan-25 19:53N 46°28' E 030°51'0 0.0
2018-Jan-25 19:14N 46°28' E 030°51'0 0.0
2018-Jan-25 18:53N 46°28' E 030°51'0 0.1
2018-Jan-25 18:26N 46°28' E 030°51'0 0.0
2018-Jan-25 17:47N 46°28' E 030°51'0 0.0
2018-Jan-25 17:29N 46°28' E 030°51'0 0.0
2018-Jan-25 16:59N 46°28' E 030°51'0 0.0
2018-Jan-25 16:29N 46°28' E 030°51'0 0.0
2018-Jan-25 15:47N 46°28' E 030°51'0 0.0
2018-Jan-25 15:17N 46°28' E 030°51'0 0.0
2018-Jan-25 14:53N 46°28' E 030°51'0 0.0
2018-Jan-25 14:26N 46°28' E 030°51'0 0.0
2018-Jan-25 13:59N 46°28' E 030°51'0 0.0
2018-Jan-25 13:29N 46°28' E 030°51'0 0.0
2018-Jan-25 13:00N 46°28' E 030°51'0 0.0
2018-Jan-25 12:30N 46°28' E 030°51'0 0.0
2018-Jan-25 12:00N 46°28' E 030°51'0 0.2
2018-Jan-25 11:29N 46°28' E 030°51'4 7.6
2018-Jan-25 10:59N 46°25' E 030°54'5 9.4
2018-Jan-25 10:29N 46°22' E 030°60'2 2.3
2018-Jan-25 09:49N 46°22' E 031°02'0 0.0
2018-Jan-25 09:28N 46°22' E 031°02'0 0.0
2018-Jan-25 08:58N 46°22' E 031°02'0 0.0
2018-Jan-25 08:28N 46°22' E 031°02'0 0.0
2018-Jan-25 07:58N 46°22' E 031°02'0 0.0
2018-Jan-25 07:28N 46°22' E 031°02'0 0.0
2018-Jan-25 06:55N 46°22' E 031°02'0 0.0
2018-Jan-25 06:28N 46°22' E 031°02'0 0.0
2018-Jan-25 05:58N 46°22' E 031°02'0 0.0
2018-Jan-25 05:28N 46°22' E 031°02'0 0.0
2018-Jan-25 04:58N 46°22' E 031°02'0 0.0
2018-Jan-25 04:25N 46°22' E 031°02'0 0.0
2018-Jan-25 03:49N 46°22' E 031°02'0 0.0
2018-Jan-25 03:28N 46°22' E 031°02'0 0.0
2018-Jan-25 02:58N 46°22' E 031°02'0 0.0
2018-Jan-25 02:28N 46°22' E 031°02'0 0.0
2018-Jan-25 01:55N 46°22' E 031°02'0 0.0
2018-Jan-25 01:25N 46°22' E 031°02'0 0.0
2018-Jan-25 00:55N 46°22' E 031°02'0 0.0
2018-Jan-25 00:28N 46°22' E 031°02'0 0.0
2018-Jan-24 23:55N 46°22' E 031°02'0 0.0
2018-Jan-24 23:28N 46°22' E 031°02'0 0.0
2018-Jan-24 22:58N 46°22' E 031°02'0 0.0
2018-Jan-24 22:25N 46°22' E 031°02'0 0.0
2018-Jan-24 21:58N 46°22' E 031°02'0 0.0
2018-Jan-24 21:01N 46°22' E 031°02'0 0.1
2018-Jan-24 20:58N 46°22' E 031°02'0 0.0
2018-Jan-24 20:22N 46°22' E 031°02'0 0.0
2018-Jan-24 19:52N 46°22' E 031°02'0 0.0
2018-Jan-24 19:28N 46°22' E 031°02'0 0.0
2018-Jan-24 18:58N 46°22' E 031°02'0 0.0
2018-Jan-24 18:28N 46°22' E 031°02'0 0.0
2018-Jan-24 17:55N 46°22' E 031°02'0 0.0
2018-Jan-24 17:28N 46°22' E 031°02'0 0.0
2018-Jan-24 16:55N 46°22' E 031°02'0 0.0
2018-Jan-24 16:25N 46°22' E 031°02'0 0.0
2018-Jan-24 15:58N 46°22' E 031°02'0 0.0
2018-Jan-24 15:28N 46°22' E 031°02'0 0.0
2018-Jan-24 14:58N 46°22' E 031°02'0 0.0
2018-Jan-24 14:28N 46°22' E 031°02'0 0.0
2018-Jan-24 13:55N 46°22' E 031°02'0 0.0
2018-Jan-24 13:28N 46°22' E 031°02'0 0.0
2018-Jan-24 12:58N 46°22' E 031°02'0 0.0
2018-Jan-24 12:28N 46°22' E 031°02'0 0.0
2018-Jan-24 11:58N 46°22' E 031°02'0 0.0
2018-Jan-24 11:28N 46°22' E 031°02'0 0.0
2018-Jan-24 10:58N 46°22' E 031°02'0 0.0
2018-Jan-24 10:28N 46°22' E 031°02'0 0.0
2018-Jan-24 09:58N 46°22' E 031°02'0 0.0
2018-Jan-24 09:28N 46°22' E 031°02'0 0.0
2018-Jan-24 08:58N 46°22' E 031°02'0 0.0
2018-Jan-24 08:28N 46°22' E 031°02'0 0.0
2018-Jan-24 07:58N 46°22' E 031°02'0 0.0
2018-Jan-24 07:28N 46°22' E 031°02'0 0.0
2018-Jan-24 06:58N 46°22' E 031°02'0 0.0
2018-Jan-24 06:28N 46°22' E 031°02'0 0.0
2018-Jan-24 05:58N 46°22' E 031°02'0 0.0
2018-Jan-24 05:28N 46°22' E 031°02'0 0.0
2018-Jan-24 04:58N 46°22' E 031°02'0 0.0
2018-Jan-24 04:28N 46°22' E 031°02'0 0.0
2018-Jan-24 03:58N 46°22' E 031°02'0 0.0
2018-Jan-24 03:16N 46°22' E 031°02'0 0.0
2018-Jan-24 02:58N 46°22' E 031°02'0 0.0
2018-Jan-24 02:28N 46°22' E 031°02'0 0.0
2018-Jan-24 01:58N 46°22' E 031°02'0 0.0
2018-Jan-24 01:25N 46°22' E 031°02'  
Track history (hours):
 
Tides and Currents Weather Stations Pressure Air Temp Water Temp Dewpoint Dewpoint Depression Visibility Wind Speed Wind Dir Waves Ship Positions

M/V Eren C

Last reported at 2018-Feb-03 00:58 UTC. Time now 2018-Feb-20 13:17 UTC.
Position N 37°04' E 025°00'.
Warning: this ship's position is 17 days out of date.

; draft 7.9 m.

Type: Ship. MMSI: 371564000.

Date/timePositionNaut miles runAvg speedWind from/ knotsBaromVisibWave heightAir tempDewpointWater temp
2018-Feb-03 00:58N 37°04' E 025°00'4 9.3
2018-Feb-03 00:30N 37°07' E 025°04'6 9.3
2018-Feb-02 23:54N 37°10' E 025°10'4 9.2
2018-Feb-02 23:30N 37°12' E 025°14'5 9.6
2018-Feb-02 23:00N 37°14' E 025°19'5 9.6
2018-Feb-02 22:31N 37°17' E 025°24'5 9.6
2018-Feb-02 22:00N 37°19' E 025°29'5 9.4
2018-Feb-02 21:30N 37°21' E 025°34'4 9.0
2018-Feb-02 21:00N 37°25' E 025°37'5 8.8
2018-Feb-02 20:30N 37°29' E 025°40'4 8.5
2018-Feb-02 20:00N 37°33' E 025°43'10 8.4
2018-Feb-02 18:50N 37°41' E 025°49'  
2018-Jan-29 10:36N 46°09' E 031°02'1 9.6
2018-Jan-29 10:30N 46°10' E 031°01'5 9.5
2018-Jan-29 10:00N 46°13' E 030°56'6 8.9
2018-Jan-29 09:17N 46°19' E 030°53'3 9.0
2018-Jan-29 09:00N 46°22' E 030°52'5 9.1
2018-Jan-29 08:31N 46°26' E 030°50'4 8.8
2018-Jan-29 08:00N 46°30' E 030°47'1 2.0
2018-Jan-29 07:30N 46°29' E 030°45'0 0.0
2018-Jan-29 07:00N 46°29' E 030°45'0 0.0
2018-Jan-29 06:30N 46°29' E 030°45'0 0.0
2018-Jan-29 06:00N 46°29' E 030°45'0 0.0
2018-Jan-29 05:27N 46°29' E 030°45'0 0.0
2018-Jan-29 05:00N 46°29' E 030°45'0 0.0
2018-Jan-29 04:30N 46°29' E 030°45'0 0.0
2018-Jan-29 04:00N 46°29' E 030°45'0 0.0
2018-Jan-29 03:27N 46°29' E 030°45'0 0.0
2018-Jan-29 03:00N 46°29' E 030°45'0 0.0
2018-Jan-29 02:30N 46°29' E 030°45'0 0.0
2018-Jan-29 02:00N 46°29' E 030°45'0 0.0
2018-Jan-29 01:30N 46°29' E 030°45'0 0.0
2018-Jan-29 01:00N 46°29' E 030°45'0 0.0
2018-Jan-29 00:30N 46°29' E 030°45'0 0.0
2018-Jan-29 00:00N 46°29' E 030°45'0 0.0
2018-Jan-28 23:30N 46°29' E 030°45'0 0.0
2018-Jan-28 23:00N 46°29' E 030°45'0 0.0
2018-Jan-28 22:30N 46°29' E 030°45'0 0.0
2018-Jan-28 22:00N 46°29' E 030°45'0 0.0
2018-Jan-28 21:30N 46°29' E 030°45'0 0.0
2018-Jan-28 21:00N 46°29' E 030°45'0 0.0
2018-Jan-28 20:30N 46°29' E 030°45'0 0.0
2018-Jan-28 20:00N 46°29' E 030°45'0 0.0
2018-Jan-28 19:30N 46°29' E 030°45'0 0.0
2018-Jan-28 19:00N 46°29' E 030°45'0 0.0
2018-Jan-28 18:30N 46°29' E 030°45'0 0.0
2018-Jan-28 18:00N 46°29' E 030°45'0 0.0
2018-Jan-28 17:30N 46°29' E 030°45'0 0.0
2018-Jan-28 17:00N 46°29' E 030°45'0 0.0
2018-Jan-28 16:30N 46°29' E 030°45'0 0.0
2018-Jan-28 15:57N 46°29' E 030°45'0 0.0
2018-Jan-28 15:30N 46°29' E 030°45'0 0.0
2018-Jan-28 15:00N 46°29' E 030°45'0 0.0
2018-Jan-28 14:30N 46°29' E 030°45'0 0.0
2018-Jan-28 14:00N 46°29' E 030°45'0 0.0
2018-Jan-28 13:30N 46°29' E 030°45'0 0.0
2018-Jan-28 13:00N 46°29' E 030°45'0 0.0
2018-Jan-28 12:30N 46°29' E 030°45'0 0.0
2018-Jan-28 12:00N 46°29' E 030°45'0 0.0
2018-Jan-28 11:30N 46°29' E 030°45'0 0.0
2018-Jan-28 10:57N 46°29' E 030°45'0 0.0
2018-Jan-28 10:30N 46°29' E 030°45'0 0.0
2018-Jan-28 10:00N 46°29' E 030°45'0 0.0
2018-Jan-28 09:30N 46°29' E 030°45'0 0.0
2018-Jan-28 09:00N 46°29' E 030°45'0 0.0
2018-Jan-28 08:28N 46°29' E 030°45'0 0.0
2018-Jan-28 07:58N 46°29' E 030°45'0 0.0
2018-Jan-28 07:28N 46°29' E 030°45'0 0.0
2018-Jan-28 06:58N 46°29' E 030°45'0 0.0
2018-Jan-28 06:28N 46°29' E 030°45'0 0.0
2018-Jan-28 05:58N 46°29' E 030°45'0 0.0
2018-Jan-28 05:28N 46°29' E 030°45'0 0.0
2018-Jan-28 04:58N 46°29' E 030°45'0 0.0
2018-Jan-28 04:28N 46°29' E 030°45'0 0.0
2018-Jan-28 03:58N 46°29' E 030°45'0 0.0
2018-Jan-28 03:28N 46°29' E 030°45'0 0.0
2018-Jan-28 02:58N 46°29' E 030°45'0 0.0
2018-Jan-28 02:28N 46°29' E 030°45'0 0.0
2018-Jan-28 01:58N 46°29' E 030°45'0 0.0
2018-Jan-28 01:28N 46°29' E 030°45'0 0.0
2018-Jan-28 00:58N 46°29' E 030°45'0 0.0
2018-Jan-28 00:28N 46°29' E 030°45'0 0.0
2018-Jan-27 23:58N 46°29' E 030°45'0 0.0
2018-Jan-27 23:28N 46°29' E 030°45'0 0.0
2018-Jan-27 22:58N 46°29' E 030°45'0 0.0
2018-Jan-27 22:28N 46°29' E 030°45'0 0.0
2018-Jan-27 21:58N 46°29' E 030°45'0 0.0
2018-Jan-27 21:25N 46°29' E 030°45'0 0.0
2018-Jan-27 20:58N 46°29' E 030°45'0 0.0
2018-Jan-27 20:28N 46°29' E 030°45'0 0.0
2018-Jan-27 19:58N 46°29' E 030°45'0 0.0
2018-Jan-27 19:25N 46°29' E 030°45'0 0.0
2018-Jan-27 18:58N 46°29' E 030°45'0 0.0
2018-Jan-27 18:28N 46°29' E 030°45'0 0.0
2018-Jan-27 17:55N 46°29' E 030°45'0 0.0
2018-Jan-27 17:28N 46°29' E 030°45'0 0.0
2018-Jan-27 16:55N 46°29' E 030°45'0 0.0
2018-Jan-27 16:28N 46°29' E 030°45'0 0.0
2018-Jan-27 15:58N 46°29' E 030°45'0 0.0
2018-Jan-27 15:29N 46°29' E 030°45'0 0.0
2018-Jan-27 14:59N 46°29' E 030°45'0 0.0
2018-Jan-27 14:29N 46°29' E 030°45'0 0.0
2018-Jan-27 13:56N 46°29' E 030°45'0 0.0
2018-Jan-27 13:26N 46°29' E 030°45'0 0.0
2018-Jan-27 12:59N 46°29' E 030°45'0 0.0
2018-Jan-27 12:29N 46°29' E 030°45'0 0.0
2018-Jan-27 11:59N 46°29' E 030°45'0 0.0
2018-Jan-27 11:29N 46°29' E 030°45'0 0.0
2018-Jan-27 10:59N 46°29' E 030°45'0 0.0
2018-Jan-27 10:29N 46°29' E 030°45'0 0.0
2018-Jan-27 09:59N 46°29' E 030°45'0 0.0
2018-Jan-27 09:26N 46°29' E 030°45'0 0.0
2018-Jan-27 08:59N 46°29' E 030°45'0 0.0
2018-Jan-27 08:29N 46°29' E 030°45'0 0.0
2018-Jan-27 07:59N 46°29' E 030°45'0 0.0
2018-Jan-27 07:29N 46°29' E 030°45'0 0.0
2018-Jan-27 06:59N 46°29' E 030°45'0 0.0
2018-Jan-27 06:29N 46°29' E 030°45'0 0.0
2018-Jan-27 05:59N 46°29' E 030°45'0 0.0
2018-Jan-27 05:29N 46°29' E 030°45'0 0.0
2018-Jan-27 04:59N 46°29' E 030°45'0 0.0
2018-Jan-27 04:29N 46°29' E 030°45'0 0.0
2018-Jan-27 03:59N 46°29' E 030°45'0 0.0
2018-Jan-27 03:29N 46°29' E 030°45'0 0.0
2018-Jan-27 02:59N 46°29' E 030°45'0 0.0
2018-Jan-27 02:29N 46°29' E 030°45'0 0.0
2018-Jan-27 01:59N 46°29' E 030°45'0 0.0
2018-Jan-27 01:29N 46°29' E 030°45'0 0.0
2018-Jan-27 00:56N 46°29' E 030°45'0 0.0
2018-Jan-27 00:29N 46°29' E 030°45'0 0.0
2018-Jan-26 23:56N 46°29' E 030°45'0 0.0
2018-Jan-26 23:29N 46°29' E 030°45'0 0.0
2018-Jan-26 22:59N 46°29' E 030°45'0 0.0
2018-Jan-26 22:29N 46°29' E 030°45'0 0.0
2018-Jan-26 21:59N 46°29' E 030°45'0 0.0
2018-Jan-26 21:29N 46°29' E 030°45'0 0.0
2018-Jan-26 20:59N 46°29' E 030°45'0 0.0
2018-Jan-26 20:29N 46°29' E 030°45'0 0.0
2018-Jan-26 19:59N 46°29' E 030°45'0 0.0
2018-Jan-26 19:29N 46°29' E 030°45'0 0.0
2018-Jan-26 18:56N 46°29' E 030°45'0 0.0
2018-Jan-26 18:29N 46°29' E 030°45'0 0.0
2018-Jan-26 17:59N 46°29' E 030°45'0 0.0
2018-Jan-26 17:26N 46°29' E 030°45'0 0.0
2018-Jan-26 16:59N 46°29' E 030°45'0 0.0
2018-Jan-26 16:29N 46°29' E 030°45'0 0.0
2018-Jan-26 15:59N 46°29' E 030°45'0 0.0
2018-Jan-26 15:29N 46°29' E 030°45'0 0.0
2018-Jan-26 14:59N 46°29' E 030°45'0 0.0
2018-Jan-26 14:29N 46°29' E 030°45'0 0.0
2018-Jan-26 13:59N 46°29' E 030°45'0 0.0
2018-Jan-26 13:29N 46°29' E 030°45'0 0.0
2018-Jan-26 13:00N 46°29' E 030°45'1 1.6
2018-Jan-26 12:30N 46°30' E 030°46'1 2.6
2018-Jan-26 12:00N 46°30' E 030°47'2 3.4
2018-Jan-26 11:30N 46°29' E 030°49'2 2.8
2018-Jan-26 10:56N 46°28' E 030°51'0 0.1
2018-Jan-26 10:29N 46°28' E 030°51'0 0.0
2018-Jan-26 08:50N 46°28' E 030°51'0 0.0
2018-Jan-26 06:59N 46°28' E 030°51'0 0.0
2018-Jan-26 05:38N 46°28' E 030°51'0 0.0
2018-Jan-26 05:23N 46°28' E 030°51'0 0.0
2018-Jan-26 04:35N 46°28' E 030°51'0 0.1
2018-Jan-26 04:29N 46°28' E 030°51'0 0.0
2018-Jan-26 03:59N 46°28' E 030°51'0 0.0
2018-Jan-26 03:29N 46°28' E 030°51'0 0.0
2018-Jan-26 02:56N 46°28' E 030°51'0 0.0
2018-Jan-26 02:29N 46°28' E 030°51'0 0.0
2018-Jan-26 01:59N 46°28' E 030°51'0 0.0
2018-Jan-26 01:14N 46°28' E 030°51'0 0.0
2018-Jan-26 00:59N 46°28' E 030°51'0 0.0
2018-Jan-26 00:17N 46°28' E 030°51'0 0.0
2018-Jan-25 23:56N 46°28' E 030°51'0 0.0
2018-Jan-25 23:20N 46°28' E 030°51'0 0.0
2018-Jan-25 22:35N 46°28' E 030°51'0 0.0
2018-Jan-25 22:23N 46°28' E 030°51'0 0.0
2018-Jan-25 21:53N 46°28' E 030°51'0 0.0
2018-Jan-25 21:26N 46°28' E 030°51'0 0.0
2018-Jan-25 20:56N 46°28' E 030°51'0 0.0
2018-Jan-25 20:29N 46°28' E 030°51'0 0.0
2018-Jan-25 19:53N 46°28' E 030°51'0 0.0
2018-Jan-25 19:14N 46°28' E 030°51'0 0.0
2018-Jan-25 18:53N 46°28' E 030°51'0 0.1
2018-Jan-25 18:26N 46°28' E 030°51'0 0.0
2018-Jan-25 17:47N 46°28' E 030°51'0 0.0
2018-Jan-25 17:29N 46°28' E 030°51'0 0.0
2018-Jan-25 16:59N 46°28' E 030°51'0 0.0
2018-Jan-25 16:29N 46°28' E 030°51'0 0.0
2018-Jan-25 15:47N 46°28' E 030°51'0 0.0
2018-Jan-25 15:17N 46°28' E 030°51'0 0.0
2018-Jan-25 14:53N 46°28' E 030°51'0 0.0
2018-Jan-25 14:26N 46°28' E 030°51'0 0.0
2018-Jan-25 13:59N 46°28' E 030°51'0 0.0
2018-Jan-25 13:29N 46°28' E 030°51'0 0.0
2018-Jan-25 13:00N 46°28' E 030°51'0 0.0
2018-Jan-25 12:30N 46°28' E 030°51'0 0.0
2018-Jan-25 12:00N 46°28' E 030°51'0 0.2
2018-Jan-25 11:29N 46°28' E 030°51'4 7.6
2018-Jan-25 10:59N 46°25' E 030°54'5 9.4
2018-Jan-25 10:29N 46°22' E 030°60'2 2.3
2018-Jan-25 09:49N 46°22' E 031°02'0 0.0
2018-Jan-25 09:28N 46°22' E 031°02'0 0.0
2018-Jan-25 08:58N 46°22' E 031°02'0 0.0
2018-Jan-25 08:28N 46°22' E 031°02'0 0.0
2018-Jan-25 07:58N 46°22' E 031°02'0 0.0
2018-Jan-25 07:28N 46°22' E 031°02'0 0.0
2018-Jan-25 06:55N 46°22' E 031°02'0 0.0
2018-Jan-25 06:28N 46°22' E 031°02'0 0.0
2018-Jan-25 05:58N 46°22' E 031°02'0 0.0
2018-Jan-25 05:28N 46°22' E 031°02'0 0.0
2018-Jan-25 04:58N 46°22' E 031°02'0 0.0
2018-Jan-25 04:25N 46°22' E 031°02'0 0.0
2018-Jan-25 03:49N 46°22' E 031°02'0 0.0
2018-Jan-25 03:28N 46°22' E 031°02'0 0.0
2018-Jan-25 02:58N 46°22' E 031°02'0 0.0
2018-Jan-25 02:28N 46°22' E 031°02'0 0.0
2018-Jan-25 01:55N 46°22' E 031°02'0 0.0
2018-Jan-25 01:25N 46°22' E 031°02'0 0.0
2018-Jan-25 00:55N 46°22' E 031°02'0 0.0
2018-Jan-25 00:28N 46°22' E 031°02'0 0.0
2018-Jan-24 23:55N 46°22' E 031°02'0 0.0
2018-Jan-24 23:28N 46°22' E 031°02'0 0.0
2018-Jan-24 22:58N 46°22' E 031°02'0 0.0
2018-Jan-24 22:25N 46°22' E 031°02'0 0.0
2018-Jan-24 21:58N 46°22' E 031°02'0 0.0
2018-Jan-24 21:01N 46°22' E 031°02'0 0.1
2018-Jan-24 20:58N 46°22' E 031°02'0 0.0
2018-Jan-24 20:22N 46°22' E 031°02'0 0.0
2018-Jan-24 19:52N 46°22' E 031°02'0 0.0
2018-Jan-24 19:28N 46°22' E 031°02'0 0.0
2018-Jan-24 18:58N 46°22' E 031°02'0 0.0
2018-Jan-24 18:28N 46°22' E 031°02'0 0.0
2018-Jan-24 17:55N 46°22' E 031°02'0 0.0
2018-Jan-24 17:28N 46°22' E 031°02'0 0.0
2018-Jan-24 16:55N 46°22' E 031°02'0 0.0
2018-Jan-24 16:25N 46°22' E 031°02'0 0.0
2018-Jan-24 15:58N 46°22' E 031°02'0 0.0
2018-Jan-24 15:28N 46°22' E 031°02'0 0.0
2018-Jan-24 14:58N 46°22' E 031°02'0 0.0
2018-Jan-24 14:28N 46°22' E 031°02'0 0.0
2018-Jan-24 13:55N 46°22' E 031°02'0 0.0
2018-Jan-24 13:28N 46°22' E 031°02'0 0.0
2018-Jan-24 12:58N 46°22' E 031°02'0 0.0
2018-Jan-24 12:28N 46°22' E 031°02'0 0.0
2018-Jan-24 11:58N 46°22' E 031°02'0 0.0
2018-Jan-24 11:28N 46°22' E 031°02'0 0.0
2018-Jan-24 10:58N 46°22' E 031°02'0 0.0
2018-Jan-24 10:28N 46°22' E 031°02'0 0.0
2018-Jan-24 09:58N 46°22' E 031°02'0 0.0
2018-Jan-24 09:28N 46°22' E 031°02'0 0.0
2018-Jan-24 08:58N 46°22' E 031°02'0 0.0
2018-Jan-24 08:28N 46°22' E 031°02'0 0.0
2018-Jan-24 07:58N 46°22' E 031°02'0 0.0
2018-Jan-24 07:28N 46°22' E 031°02'0 0.0
2018-Jan-24 06:58N 46°22' E 031°02'0 0.0
2018-Jan-24 06:28N 46°22' E 031°02'0 0.0
2018-Jan-24 05:58N 46°22' E 031°02'0 0.0
2018-Jan-24 05:28N 46°22' E 031°02'0 0.0
2018-Jan-24 04:58N 46°22' E 031°02'0 0.0
2018-Jan-24 04:28N 46°22' E 031°02'0 0.0
2018-Jan-24 03:58N 46°22' E 031°02'0 0.0
2018-Jan-24 03:16N 46°22' E 031°02'0 0.0
2018-Jan-24 02:58N 46°22' E 031°02'0 0.0
2018-Jan-24 02:28N 46°22' E 031°02'0 0.0
2018-Jan-24 01:58N 46°22' E 031°02'0 0.0
2018-Jan-24 01:25N 46°22' E 031°02'  

Dump ship's entire track history